createdAt,value
2019-04-14T15:46:50.416Z,13.47
2019-04-14T15:49:19.123Z,13.20
2019-04-14T15:51:47.806Z,13.57
2019-04-14T15:54:16.619Z,13.57
2019-04-14T15:57:01.979Z,13.70
2019-04-14T15:59:39.094Z,13.57
2019-04-14T16:02:12.589Z,13.90
2019-04-14T16:04:46.223Z,13.00
2019-04-14T16:07:25.716Z,13.00
2019-04-14T16:10:12.766Z,12.33
2019-04-14T16:12:45.849Z,13.27
2019-04-14T16:15:16.286Z,12.80
2019-04-14T16:17:58.800Z,13.43
2019-04-14T16:20:29.112Z,12.10
2019-04-14T16:22:57.750Z,12.07
2019-04-14T16:25:28.095Z,12.30
2019-04-14T16:27:58.411Z,12.70
2019-04-14T16:30:31.358Z,12.50
2019-04-14T16:33:07.506Z,12.43
2019-04-14T16:35:37.764Z,12.73
2019-04-14T16:38:06.570Z,12.47
2019-04-14T16:40:36.277Z,12.20
2019-04-14T16:43:05.520Z,11.73
2019-04-14T16:45:34.234Z,11.63
2019-04-14T16:48:02.890Z,11.50
2019-04-14T16:50:31.496Z,11.83
2019-04-14T16:53:07.816Z,12.07
2019-04-14T16:55:54.551Z,12.20
2019-04-14T16:58:24.842Z,12.00
2019-04-14T17:01:01.020Z,12.40
2019-04-14T17:03:29.633Z,12.40
2019-04-14T17:05:58.366Z,12.37
2019-04-14T17:08:26.973Z,11.37
2019-04-14T17:10:55.624Z,12.17
2019-04-14T17:13:25.929Z,11.90
2019-04-14T17:16:01.727Z,12.03
2019-04-14T17:18:34.931Z,12.40
2019-04-14T17:21:14.007Z,11.60
2019-04-14T17:24:02.245Z,11.23
2019-04-14T17:26:31.369Z,11.63
2019-04-14T17:29:17.098Z,11.17
2019-04-14T17:31:54.058Z,11.37
2019-04-14T17:34:27.046Z,11.33
2019-04-14T17:37:03.339Z,11.30
2019-04-14T17:39:49.738Z,11.47
2019-04-14T17:42:29.396Z,11.13
2019-04-14T17:45:18.159Z,12.30
2019-04-14T17:48:01.992Z,11.87
2019-04-14T17:50:40.998Z,11.47
2019-04-14T17:53:19.734Z,11.77
2019-04-14T17:55:50.369Z,11.50
2019-04-14T17:58:20.919Z,12.07
2019-04-14T18:01:06.467Z,10.67
2019-04-14T18:03:52.784Z,12.50
2019-04-14T18:06:28.808Z,12.27
2019-04-14T18:09:08.092Z,11.20
2019-04-14T18:11:53.592Z,12.00
2019-04-14T18:14:26.972Z,12.37
2019-04-14T18:16:57.428Z,12.73
2019-04-14T18:19:27.679Z,11.80
2019-04-14T18:21:56.452Z,11.73
2019-04-14T18:24:25.067Z,12.30
2019-04-14T18:26:53.790Z,12.27
2019-04-14T18:29:29.837Z,11.80
2019-04-14T18:32:02.980Z,11.00
2019-04-14T18:34:36.048Z,11.47
2019-04-14T18:37:09.179Z,11.27
2019-04-14T18:39:39.497Z,10.57
2019-04-14T18:42:09.799Z,10.60
2019-04-14T18:44:56.274Z,9.70
2019-04-14T18:47:41.579Z,9.80
2019-04-14T18:50:11.938Z,9.37
2019-04-14T18:52:54.135Z,9.30
2019-04-14T18:55:39.523Z,8.73
2019-04-14T18:58:18.840Z,8.60
2019-04-14T19:01:01.100Z,9.10
2019-04-14T19:03:29.844Z,8.70
2019-04-14T19:05:58.516Z,9.13
2019-04-14T19:08:27.302Z,8.87
2019-04-14T19:11:15.681Z,9.07
2019-04-14T19:13:46.011Z,9.27
2019-04-14T19:16:21.752Z,8.70
2019-04-14T19:18:57.803Z,8.97
2019-04-14T19:21:28.090Z,9.00
2019-04-14T19:23:56.762Z,9.00
2019-04-14T19:26:25.362Z,8.70
2019-04-14T19:28:54.023Z,8.53
2019-04-14T19:31:22.634Z,8.40
2019-04-14T19:33:51.623Z,8.80
2019-04-14T19:36:20.231Z,7.83
2019-04-14T19:38:48.880Z,8.57
2019-04-14T19:41:17.495Z,10.10
2019-04-14T19:43:46.561Z,8.53
2019-04-14T19:46:15.267Z,8.27
2019-04-14T19:48:44.046Z,8.67
2019-04-14T19:51:12.726Z,8.63
2019-04-14T19:53:41.417Z,8.50
2019-04-14T19:56:10.154Z,8.53
2019-04-14T19:58:38.827Z,8.30
2019-04-14T20:01:07.619Z,8.97
2019-04-14T20:03:36.234Z,9.03
2019-04-14T20:06:05.887Z,9.00
2019-04-14T20:08:34.499Z,9.23
2019-04-14T20:11:03.698Z,8.90
2019-04-14T20:13:34.167Z,9.03
2019-04-14T20:16:07.418Z,9.20
2019-04-14T20:18:37.826Z,9.53
2019-04-14T20:21:13.935Z,8.80
2019-04-14T20:23:44.391Z,9.20
2019-04-14T20:26:23.456Z,9.07
2019-04-14T20:28:53.758Z,8.93
2019-04-14T20:31:29.914Z,9.10
2019-04-14T20:33:58.566Z,8.77
2019-04-14T20:36:27.185Z,9.20
2019-04-14T20:38:55.915Z,8.97
2019-04-14T20:41:25.028Z,9.03
2019-04-14T20:43:53.726Z,9.03
2019-04-14T20:46:22.524Z,9.30
2019-04-14T20:48:51.421Z,9.70
2019-04-14T20:51:20.166Z,9.20
2019-04-14T20:53:48.910Z,9.13
2019-04-14T20:56:17.585Z,9.53
2019-04-14T20:58:46.427Z,9.47
2019-04-14T21:01:16.646Z,9.23
2019-04-14T21:03:46.967Z,9.27
2019-04-14T21:06:20.330Z,9.70
2019-04-14T21:09:02.928Z,9.53
2019-04-14T21:11:39.289Z,10.10
2019-04-14T21:14:15.674Z,9.50
2019-04-14T21:16:46.166Z,9.63
2019-04-14T21:19:17.494Z,10.30
2019-04-14T21:21:47.995Z,9.77
2019-04-14T21:24:18.445Z,9.37
2019-04-14T21:27:04.935Z,9.60
2019-04-14T21:29:50.641Z,9.50
2019-04-14T21:32:21.126Z,9.43
2019-04-14T21:34:51.496Z,8.93
2019-04-14T21:37:27.521Z,9.53
2019-04-14T21:39:57.836Z,9.80
2019-04-14T21:42:26.741Z,9.23
2019-04-14T21:44:55.504Z,9.97
2019-04-14T21:47:24.303Z,10.40
2019-04-14T21:49:53.111Z,10.00
2019-04-14T21:52:23.412Z,9.80
2019-04-14T21:54:52.144Z,9.83
2019-04-14T21:57:42.355Z,9.83
2019-04-14T22:00:29.602Z,11.10
2019-04-14T22:03:16.648Z,10.50
2019-04-14T22:05:52.764Z,10.50
2019-04-14T22:08:39.192Z,11.40
2019-04-14T22:11:09.546Z,10.63
2019-04-14T22:13:38.210Z,11.30
2019-04-14T22:16:06.949Z,10.87
2019-04-14T22:18:35.586Z,11.03
2019-04-14T22:21:04.284Z,11.37
2019-04-14T22:23:32.960Z,10.90
2019-04-14T22:26:01.709Z,11.63
2019-04-14T22:28:30.448Z,12.03
2019-04-14T22:30:59.166Z,12.37
2019-04-14T22:33:27.780Z,12.27
2019-04-14T22:35:56.577Z,11.87
2019-04-14T22:38:25.250Z,12.53
2019-04-14T22:40:53.975Z,12.60
2019-04-14T22:43:22.707Z,13.07
2019-04-14T22:45:51.462Z,11.83
2019-04-14T22:48:20.195Z,13.40
2019-04-14T22:50:48.846Z,13.23
2019-04-14T22:53:17.463Z,12.93
2019-04-14T22:55:46.213Z,13.33
2019-04-14T22:58:14.940Z,13.67
2019-04-14T23:00:48.011Z,13.77
2019-04-14T23:03:18.332Z,13.57
2019-04-14T23:06:00.567Z,13.20
2019-04-14T23:08:30.961Z,13.07
2019-04-14T23:11:13.162Z,13.60
2019-04-14T23:13:43.473Z,13.20
2019-04-14T23:16:13.849Z,14.30
2019-04-14T23:18:46.974Z,14.43
2019-04-14T23:21:33.851Z,13.53
2019-04-14T23:24:13.036Z,14.23
2019-04-14T23:27:18.091Z,14.73
2019-04-14T23:29:46.959Z,13.77
2019-04-14T23:32:15.860Z,14.83
2019-04-14T23:34:44.899Z,14.67
2019-04-14T23:37:13.701Z,14.97
2019-04-14T23:39:42.392Z,14.37
2019-04-14T23:42:11.002Z,15.27
2019-04-14T23:44:39.675Z,15.30
2019-04-14T23:47:08.328Z,14.90
2019-04-14T23:49:36.944Z,15.63
2019-04-14T23:52:05.678Z,15.30
2019-04-14T23:54:34.290Z,15.43
2019-04-14T23:57:05.876Z,15.93
2019-04-14T23:59:33.344Z,16.33
